sensor_id;sensor_type;location;lat;lon;timestamp;temperature;humidity
7254;DHT22;4060;49.186;9.226;2023-04-21T00:00:26;13.50;67.00
7254;DHT22;4060;49.186;9.226;2023-04-21T00:02:56;13.50;67.00
7254;DHT22;4060;49.186;9.226;2023-04-21T00:05:28;13.40;66.90
7254;DHT22;4060;49.186;9.226;2023-04-21T00:07:57;13.40;67.00
7254;DHT22;4060;49.186;9.226;2023-04-21T00:10:27;13.40;67.00
7254;DHT22;4060;49.186;9.226;2023-04-21T00:12:56;13.40;67.00
7254;DHT22;4060;49.186;9.226;2023-04-21T00:15:26;13.30;66.90
7254;DHT22;4060;49.186;9.226;2023-04-21T00:17:55;13.40;67.00
7254;DHT22;4060;49.186;9.226;2023-04-21T00:20:27;13.30;66.90
7254;DHT22;4060;49.186;9.226;2023-04-21T00:22:57;13.30;66.80
7254;DHT22;4060;49.186;9.226;2023-04-21T00:25:27;13.30;66.80
7254;DHT22;4060;49.186;9.226;2023-04-21T00:27:56;13.20;66.80
7254;DHT22;4060;49.186;9.226;2023-04-21T00:30:25;13.20;66.80
7254;DHT22;4060;49.186;9.226;2023-04-21T00:32:55;13.20;66.70
7254;DHT22;4060;49.186;9.226;2023-04-21T00:35:24;13.20;66.80
7254;DHT22;4060;49.186;9.226;2023-04-21T00:37:57;13.20;66.80
7254;DHT22;4060;49.186;9.226;2023-04-21T00:40:26;13.20;66.90
7254;DHT22;4060;49.186;9.226;2023-04-21T00:42:56;13.20;66.80
7254;DHT22;4060;49.186;9.226;2023-04-21T00:45:26;13.20;66.90
7254;DHT22;4060;49.186;9.226;2023-04-21T00:47:55;13.20;66.90
7254;DHT22;4060;49.186;9.226;2023-04-21T00:50:25;13.10;66.80
7254;DHT22;4060;49.186;9.226;2023-04-21T00:52:56;13.10;66.80
7254;DHT22;4060;49.186;9.226;2023-04-21T00:55:26;13.10;66.90
7254;DHT22;4060;49.186;9.226;2023-04-21T00:57:57;13.10;66.90
7254;DHT22;4060;49.186;9.226;2023-04-21T01:00:27;13.10;67.00
7254;DHT22;4060;49.186;9.226;2023-04-21T01:02:56;13.00;66.90
7254;DHT22;4060;49.186;9.226;2023-04-21T01:05:26;13.00;67.00
7254;DHT22;4060;49.186;9.226;2023-04-21T01:07:57;13.00;67.10
7254;DHT22;4060;49.186;9.226;2023-04-21T01:10:27;13.00;67.10
7254;DHT22;4060;49.186;9.226;2023-04-21T01:12:56;13.00;67.20
7254;DHT22;4060;49.186;9.226;2023-04-21T01:15:26;13.00;67.20
7254;DHT22;4060;49.186;9.226;2023-04-21T01:17:57;13.00;67.20
7254;DHT22;4060;49.186;9.226;2023-04-21T01:20:27;12.90;67.20
7254;DHT22;4060;49.186;9.226;2023-04-21T01:22:59;12.90;67.20
7254;DHT22;4060;49.186;9.226;2023-04-21T01:25:29;12.90;67.10
7254;DHT22;4060;49.186;9.226;2023-04-21T01:27:59;12.90;67.10
7254;DHT22;4060;49.186;9.226;2023-04-21T01:30:28;12.90;67.00
7254;DHT22;4060;49.186;9.226;2023-04-21T01:32:57;12.80;67.00
7254;DHT22;4060;49.186;9.226;2023-04-21T01:35:27;12.80;67.10
7254;DHT22;4060;49.186;9.226;2023-04-21T01:37:58;12.80;67.00
7254;DHT22;4060;49.186;9.226;2023-04-21T01:40:28;12.80;67.00
7254;DHT22;4060;49.186;9.226;2023-04-21T01:42:57;12.80;67.00
7254;DHT22;4060;49.186;9.226;2023-04-21T01:45:26;12.80;67.00
7254;DHT22;4060;49.186;9.226;2023-04-21T01:47:56;12.70;66.90
7254;DHT22;4060;49.186;9.226;2023-04-21T01:50:25;12.70;66.90
7254;DHT22;4060;49.186;9.226;2023-04-21T01:52:55;12.70;66.90
7254;DHT22;4060;49.186;9.226;2023-04-21T01:55:26;12.70;66.90
7254;DHT22;4060;49.186;9.226;2023-04-21T01:57:55;12.70;67.00
7254;DHT22;4060;49.186;9.226;2023-04-21T02:00:25;12.70;67.00
7254;DHT22;4060;49.186;9.226;2023-04-21T02:02:55;12.60;66.80
7254;DHT22;4060;49.186;9.226;2023-04-21T02:05:25;12.60;66.80
7254;DHT22;4060;49.186;9.226;2023-04-21T02:07:54;12.60;66.80
7254;DHT22;4060;49.186;9.226;2023-04-21T02:10:28;12.60;66.80
7254;DHT22;4060;49.186;9.226;2023-04-21T02:12:57;12.60;66.80
7254;DHT22;4060;49.186;9.226;2023-04-21T02:15:27;12.60;66.70
7254;DHT22;4060;49.186;9.226;2023-04-21T02:17:56;12.50;66.60
7254;DHT22;4060;49.186;9.226;2023-04-21T02:20:26;12.60;66.80
7254;DHT22;4060;49.186;9.226;2023-04-21T02:22:55;12.50;66.70
7254;DHT22;4060;49.186;9.226;2023-04-21T02:25:26;12.50;66.70
7254;DHT22;4060;49.186;9.226;2023-04-21T02:27:56;12.50;66.70
7254;DHT22;4060;49.186;9.226;2023-04-21T02:30:25;12.50;66.70
7254;DHT22;4060;49.186;9.226;2023-04-21T02:32:54;12.50;66.70
7254;DHT22;4060;49.186;9.226;2023-04-21T02:35:23;12.50;66.70
7254;DHT22;4060;49.186;9.226;2023-04-21T02:37:53;12.50;66.60
7254;DHT22;4060;49.186;9.226;2023-04-21T02:40:22;12.50;66.60
7254;DHT22;4060;49.186;9.226;2023-04-21T02:42:54;12.50;66.60
7254;DHT22;4060;49.186;9.226;2023-04-21T02:45:24;12.50;66.60
7254;DHT22;4060;49.186;9.226;2023-04-21T02:47:53;12.40;66.50
7254;DHT22;4060;49.186;9.226;2023-04-21T02:50:23;12.40;66.60
7254;DHT22;4060;49.186;9.226;2023-04-21T02:52:52;12.40;66.60
7254;DHT22;4060;49.186;9.226;2023-04-21T02:55:22;12.40;66.60
7254;DHT22;4060;49.186;9.226;2023-04-21T02:57:53;12.40;66.50
7254;DHT22;4060;49.186;9.226;2023-04-21T03:00:23;12.40;66.50
7254;DHT22;4060;49.186;9.226;2023-04-21T03:02:53;12.40;66.50
7254;DHT22;4060;49.186;9.226;2023-04-21T03:05:22;12.30;66.40
7254;DHT22;4060;49.186;9.226;2023-04-21T03:07:52;12.30;66.40
7254;DHT22;4060;49.186;9.226;2023-04-21T03:10:22;12.30;66.40
7254;DHT22;4060;49.186;9.226;2023-04-21T03:12:53;12.30;66.30
7254;DHT22;4060;49.186;9.226;2023-04-21T03:15:22;12.30;66.30
7254;DHT22;4060;49.186;9.226;2023-04-21T03:17:51;12.30;66.40
7254;DHT22;4060;49.186;9.226;2023-04-21T03:20:20;12.30;66.40
7254;DHT22;4060;49.186;9.226;2023-04-21T03:22:52;12.20;66.20
7254;DHT22;4060;49.186;9.226;2023-04-21T03:25:22;12.30;66.50
7254;DHT22;4060;49.186;9.226;2023-04-21T03:27:55;12.20;66.20
7254;DHT22;4060;49.186;9.226;2023-04-21T03:30:24;12.20;66.30
7254;DHT22;4060;49.186;9.226;2023-04-21T03:32:54;12.20;66.20
7254;DHT22;4060;49.186;9.226;2023-04-21T03:35:23;12.20;66.20
7254;DHT22;4060;49.186;9.226;2023-04-21T03:37:52;12.20;66.30
7254;DHT22;4060;49.186;9.226;2023-04-21T03:40:22;12.20;66.30
7254;DHT22;4060;49.186;9.226;2023-04-21T03:42:51;12.20;66.30
7254;DHT22;4060;49.186;9.226;2023-04-21T03:45:23;12.20;66.30
7254;DHT22;4060;49.186;9.226;2023-04-21T03:47:53;12.10;66.20
7254;DHT22;4060;49.186;9.226;2023-04-21T03:50:23;12.10;66.20
7254;DHT22;4060;49.186;9.226;2023-04-21T03:52:53;12.10;66.10
7254;DHT22;4060;49.186;9.226;2023-04-21T03:55:22;12.10;66.10
7254;DHT22;4060;49.186;9.226;2023-04-21T03:57:52;12.10;66.20
7254;DHT22;4060;49.186;9.226;2023-04-21T04:00:24;12.10;66.10
7254;DHT22;4060;49.186;9.226;2023-04-21T04:02:53;12.10;66.10
7254;DHT22;4060;49.186;9.226;2023-04-21T04:05:23;12.10;66.10
7254;DHT22;4060;49.186;9.226;2023-04-21T04:07:52;12.10;66.10
7254;DHT22;4060;49.186;9.226;2023-04-21T04:10:22;12.00;66.10
7254;DHT22;4060;49.186;9.226;2023-04-21T04:12:51;12.00;66.10
7254;DHT22;4060;49.186;9.226;2023-04-21T04:15:23;12.00;66.00
7254;DHT22;4060;49.186;9.226;2023-04-21T04:17:53;12.00;66.10
7254;DHT22;4060;49.186;9.226;2023-04-21T04:20:22;12.00;66.20
7254;DHT22;4060;49.186;9.226;2023-04-21T04:22:52;12.00;66.20
7254;DHT22;4060;49.186;9.226;2023-04-21T04:25:22;12.00;66.20
7254;DHT22;4060;49.186;9.226;2023-04-21T04:27:52;12.00;66.10
7254;DHT22;4060;49.186;9.226;2023-04-21T04:30:24;11.90;66.10
7254;DHT22;4060;49.186;9.226;2023-04-21T04:32:54;11.90;66.00
7254;DHT22;4060;49.186;9.226;2023-04-21T04:35:24;11.90;66.00
7254;DHT22;4060;49.186;9.226;2023-04-21T04:37:54;11.90;66.10
7254;DHT22;4060;49.186;9.226;2023-04-21T04:40:24;11.90;66.10
7254;DHT22;4060;49.186;9.226;2023-04-21T04:42:53;11.90;66.10
7254;DHT22;4060;49.186;9.226;2023-04-21T04:45:25;11.90;66.10
7254;DHT22;4060;49.186;9.226;2023-04-21T04:47:58;11.90;66.10
7254;DHT22;4060;49.186;9.226;2023-04-21T04:50:27;11.90;66.10
7254;DHT22;4060;49.186;9.226;2023-04-21T04:52:57;11.90;66.20
7254;DHT22;4060;49.186;9.226;2023-04-21T04:55:26;11.80;66.10
7254;DHT22;4060;49.186;9.226;2023-04-21T04:57:56;11.80;66.00
7254;DHT22;4060;49.186;9.226;2023-04-21T05:00:27;11.80;66.10
7254;DHT22;4060;49.186;9.226;2023-04-21T05:02:57;11.80;66.20
7254;DHT22;4060;49.186;9.226;2023-04-21T05:05:27;11.80;66.20
7254;DHT22;4060;49.186;9.226;2023-04-21T05:07:56;11.80;66.20
7254;DHT22;4060;49.186;9.226;2023-04-21T05:10:25;11.80;66.20
7254;DHT22;4060;49.186;9.226;2023-04-21T05:12:54;11.80;66.30
7254;DHT22;4060;49.186;9.226;2023-04-21T05:15:26;11.80;66.30
7254;DHT22;4060;49.186;9.226;2023-04-21T05:17:55;11.80;66.40
7254;DHT22;4060;49.186;9.226;2023-04-21T05:20:25;11.80;66.40
7254;DHT22;4060;49.186;9.226;2023-04-21T05:22:54;11.80;66.50
7254;DHT22;4060;49.186;9.226;2023-04-21T05:25:23;11.80;66.50
7254;DHT22;4060;49.186;9.226;2023-04-21T05:27:53;11.70;66.40
7254;DHT22;4060;49.186;9.226;2023-04-21T05:30:22;11.70;66.60
7254;DHT22;4060;49.186;9.226;2023-04-21T05:32:53;11.70;66.50
7254;DHT22;4060;49.186;9.226;2023-04-21T05:35:23;11.70;66.60
7254;DHT22;4060;49.186;9.226;2023-04-21T05:37:54;11.70;67.30
7254;DHT22;4060;49.186;9.226;2023-04-21T05:40:24;11.70;66.60
7254;DHT22;4060;49.186;9.226;2023-04-21T05:42:53;11.70;66.70
7254;DHT22;4060;49.186;9.226;2023-04-21T05:45:23;11.70;66.70
7254;DHT22;4060;49.186;9.226;2023-04-21T05:47:54;11.70;66.70
7254;DHT22;4060;49.186;9.226;2023-04-21T05:50:23;11.70;66.80
7254;DHT22;4060;49.186;9.226;2023-04-21T05:53:00;11.70;66.70
7254;DHT22;4060;49.186;9.226;2023-04-21T05:55:32;11.70;66.80
7254;DHT22;4060;49.186;9.226;2023-04-21T05:58:01;11.70;66.90
7254;DHT22;4060;49.186;9.226;2023-04-21T06:00:31;11.70;66.90
7254;DHT22;4060;49.186;9.226;2023-04-21T06:03:02;11.70;67.00
7254;DHT22;4060;49.186;9.226;2023-04-21T06:05:32;11.70;67.10
7254;DHT22;4060;49.186;9.226;2023-04-21T06:08:02;11.70;67.10
7254;DHT22;4060;49.186;9.226;2023-04-21T06:10:32;11.70;67.20
7254;DHT22;4060;49.186;9.226;2023-04-21T06:13:01;11.70;67.20
7254;DHT22;4060;49.186;9.226;2023-04-21T06:15:30;11.70;67.30
7254;DHT22;4060;49.186;9.226;2023-04-21T06:18:02;11.70;67.30
7254;DHT22;4060;49.186;9.226;2023-04-21T06:20:31;11.70;67.40
7254;DHT22;4060;49.186;9.226;2023-04-21T06:23:01;11.70;67.40
7254;DHT22;4060;49.186;9.226;2023-04-21T06:25:30;11.70;67.40
7254;DHT22;4060;49.186;9.226;2023-04-21T06:28:00;11.70;67.40
7254;DHT22;4060;49.186;9.226;2023-04-21T06:30:29;11.70;67.50
7254;DHT22;4060;49.186;9.226;2023-04-21T06:32:59;11.70;67.60
7254;DHT22;4060;49.186;9.226;2023-04-21T06:35:32;11.70;67.70
7254;DHT22;4060;49.186;9.226;2023-04-21T06:38:01;11.70;67.70
7254;DHT22;4060;49.186;9.226;2023-04-21T06:40:31;11.70;67.80
7254;DHT22;4060;49.186;9.226;2023-04-21T06:43:00;11.70;67.80
7254;DHT22;4060;49.186;9.226;2023-04-21T06:45:35;11.70;67.80
7254;DHT22;4060;49.186;9.226;2023-04-21T06:48:04;11.70;67.90
7254;DHT22;4060;49.186;9.226;2023-04-21T06:50:36;11.70;68.00
7254;DHT22;4060;49.186;9.226;2023-04-21T06:53:05;11.70;68.00
7254;DHT22;4060;49.186;9.226;2023-04-21T06:55:35;11.70;68.00
7254;DHT22;4060;49.186;9.226;2023-04-21T06:58:05;11.70;67.80
7254;DHT22;4060;49.186;9.226;2023-04-21T07:00:34;11.70;67.60
7254;DHT22;4060;49.186;9.226;2023-04-21T07:03:04;11.70;67.60
7254;DHT22;4060;49.186;9.226;2023-04-21T07:05:35;11.70;67.70
7254;DHT22;4060;49.186;9.226;2023-04-21T07:08:05;11.70;67.60
7254;DHT22;4060;49.186;9.226;2023-04-21T07:10:34;11.70;67.60
7254;DHT22;4060;49.186;9.226;2023-04-21T07:13:03;11.70;67.60
7254;DHT22;4060;49.186;9.226;2023-04-21T07:15:33;11.70;67.60
7254;DHT22;4060;49.186;9.226;2023-04-21T07:18:02;11.70;67.60
7254;DHT22;4060;49.186;9.226;2023-04-21T07:20:32;11.70;67.60
7254;DHT22;4060;49.186;9.226;2023-04-21T07:23:03;11.70;67.80
7254;DHT22;4060;49.186;9.226;2023-04-21T07:25:32;11.70;68.30
7254;DHT22;4060;49.186;9.226;2023-04-21T07:28:01;11.80;69.10
7254;DHT22;4060;49.186;9.226;2023-04-21T07:30:31;11.90;69.70
7254;DHT22;4060;49.186;9.226;2023-04-21T07:33:00;12.10;70.30
7254;DHT22;4060;49.186;9.226;2023-04-21T07:35:30;12.30;70.60
7254;DHT22;4060;49.186;9.226;2023-04-21T07:38:01;12.40;70.60
7254;DHT22;4060;49.186;9.226;2023-04-21T07:40:33;12.50;70.50
7254;DHT22;4060;49.186;9.226;2023-04-21T07:43:03;12.70;70.50
7254;DHT22;4060;49.186;9.226;2023-04-21T07:45:33;12.80;70.40
7254;DHT22;4060;49.186;9.226;2023-04-21T07:48:02;12.90;70.10
7254;DHT22;4060;49.186;9.226;2023-04-21T07:50:32;13.00;70.00
7254;DHT22;4060;49.186;9.226;2023-04-21T07:53:04;13.10;69.90
7254;DHT22;4060;49.186;9.226;2023-04-21T07:55:34;13.20;69.80
7254;DHT22;4060;49.186;9.226;2023-04-21T07:58:04;13.20;69.50
7254;DHT22;4060;49.186;9.226;2023-04-21T08:00:34;13.30;69.40
7254;DHT22;4060;49.186;9.226;2023-04-21T08:03:03;13.30;69.30
7254;DHT22;4060;49.186;9.226;2023-04-21T08:05:31;13.40;69.20
7254;DHT22;4060;49.186;9.226;2023-04-21T08:08:00;13.40;69.80
7254;DHT22;4060;49.186;9.226;2023-04-21T08:10:31;13.40;68.90
7254;DHT22;4060;49.186;9.226;2023-04-21T08:13:00;13.50;69.10
7254;DHT22;4060;49.186;9.226;2023-04-21T08:15:32;13.50;69.00
7254;DHT22;4060;49.186;9.226;2023-04-21T08:18:02;13.50;68.90
7254;DHT22;4060;49.186;9.226;2023-04-21T08:20:31;13.50;68.80
7254;DHT22;4060;49.186;9.226;2023-04-21T08:23:00;13.50;68.80
7254;DHT22;4060;49.186;9.226;2023-04-21T08:25:31;13.50;68.80
7254;DHT22;4060;49.186;9.226;2023-04-21T08:28:00;13.50;68.80
7254;DHT22;4060;49.186;9.226;2023-04-21T08:30:30;13.60;68.90
7254;DHT22;4060;49.186;9.226;2023-04-21T08:32:59;13.60;68.90
7254;DHT22;4060;49.186;9.226;2023-04-21T08:35:28;13.60;69.00
7254;DHT22;4060;49.186;9.226;2023-04-21T08:37:58;13.60;69.00
7254;DHT22;4060;49.186;9.226;2023-04-21T08:40:36;13.60;69.00
7254;DHT22;4060;49.186;9.226;2023-04-21T08:43:05;13.60;69.10
7254;DHT22;4060;49.186;9.226;2023-04-21T08:45:35;13.60;69.00
7254;DHT22;4060;49.186;9.226;2023-04-21T08:48:05;13.60;69.20
7254;DHT22;4060;49.186;9.226;2023-04-21T08:50:36;13.60;69.20
7254;DHT22;4060;49.186;9.226;2023-04-21T08:53:05;13.70;69.40
7254;DHT22;4060;49.186;9.226;2023-04-21T08:55:37;13.70;69.40
7254;DHT22;4060;49.186;9.226;2023-04-21T08:58:07;13.70;69.60
7254;DHT22;4060;49.186;9.226;2023-04-21T09:00:37;13.70;69.60
7254;DHT22;4060;49.186;9.226;2023-04-21T09:03:07;13.70;69.70
7254;DHT22;4060;49.186;9.226;2023-04-21T09:05:36;13.80;69.90
7254;DHT22;4060;49.186;9.226;2023-04-21T09:08:10;13.80;69.90
7254;DHT22;4060;49.186;9.226;2023-04-21T09:10:49;13.80;70.00
7254;DHT22;4060;49.186;9.226;2023-04-21T09:13:19;13.90;70.10
7254;DHT22;4060;49.186;9.226;2023-04-21T09:15:50;13.90;70.10
7254;DHT22;4060;49.186;9.226;2023-04-21T09:18:22;13.90;70.10
7254;DHT22;4060;49.186;9.226;2023-04-21T09:21:04;13.90;70.10
7254;DHT22;4060;49.186;9.226;2023-04-21T09:23:42;13.90;70.00
7254;DHT22;4060;49.186;9.226;2023-04-21T09:26:14;13.90;70.00
7254;DHT22;4060;49.186;9.226;2023-04-21T09:28:45;13.90;69.90
7254;DHT22;4060;49.186;9.226;2023-04-21T09:31:15;14.00;70.10
7254;DHT22;4060;49.186;9.226;2023-04-21T09:33:46;14.00;70.10
7254;DHT22;4060;49.186;9.226;2023-04-21T09:36:20;14.00;70.10
7254;DHT22;4060;49.186;9.226;2023-04-21T09:38:55;14.00;70.00
7254;DHT22;4060;49.186;9.226;2023-04-21T09:41:30;14.00;70.20
7254;DHT22;4060;49.186;9.226;2023-04-21T09:44:00;14.10;70.30
7254;DHT22;4060;49.186;9.226;2023-04-21T09:46:32;14.10;70.30
7254;DHT22;4060;49.186;9.226;2023-04-21T09:49:03;14.10;70.50
7254;DHT22;4060;49.186;9.226;2023-04-21T09:51:33;14.20;70.70
7254;DHT22;4060;49.186;9.226;2023-04-21T09:54:09;14.20;70.70
7254;DHT22;4060;49.186;9.226;2023-04-21T09:56:46;14.20;70.80
7254;DHT22;4060;49.186;9.226;2023-04-21T09:59:23;14.20;70.90
7254;DHT22;4060;49.186;9.226;2023-04-21T10:01:55;14.30;71.00
7254;DHT22;4060;49.186;9.226;2023-04-21T10:04:27;14.30;71.00
7254;DHT22;4060;49.186;9.226;2023-04-21T10:06:58;14.30;71.00
7254;DHT22;4060;49.186;9.226;2023-04-21T10:09:30;14.40;71.00
7254;DHT22;4060;49.186;9.226;2023-04-21T10:12:03;14.40;71.00
7254;DHT22;4060;49.186;9.226;2023-04-21T10:14:33;14.40;71.00
7254;DHT22;4060;49.186;9.226;2023-04-21T10:17:04;14.40;70.90
7254;DHT22;4060;49.186;9.226;2023-04-21T10:19:35;14.50;71.10
7254;DHT22;4060;49.186;9.226;2023-04-21T10:22:06;14.50;71.20
7254;DHT22;4060;49.186;9.226;2023-04-21T10:24:39;14.50;71.10
7254;DHT22;4060;49.186;9.226;2023-04-21T10:27:31;14.60;71.20
7254;DHT22;4060;49.186;9.226;2023-04-21T10:30:01;14.60;71.30
7254;DHT22;4060;49.186;9.226;2023-04-21T10:32:46;14.60;71.10
7254;DHT22;4060;49.186;9.226;2023-04-21T10:35:21;14.70;71.20
7254;DHT22;4060;49.186;9.226;2023-04-21T10:37:52;14.70;71.30
7254;DHT22;4060;49.186;9.226;2023-04-21T10:40:34;14.70;71.20
7254;DHT22;4060;49.186;9.226;2023-04-21T10:43:42;14.80;71.30
7254;DHT22;4060;49.186;9.226;2023-04-21T10:46:32;14.80;71.30
7254;DHT22;4060;49.186;9.226;2023-04-21T10:49:07;14.90;71.30
7254;DHT22;4060;49.186;9.226;2023-04-21T10:52:03;14.90;71.00
7254;DHT22;4060;49.186;9.226;2023-04-21T10:54:40;15.00;71.10
7254;DHT22;4060;49.186;9.226;2023-04-21T10:57:12;15.00;70.90
7254;DHT22;4060;49.186;9.226;2023-04-21T10:59:44;15.00;70.80
7254;DHT22;4060;49.186;9.226;2023-04-21T11:02:15;15.00;70.70
7254;DHT22;4060;49.186;9.226;2023-04-21T11:04:48;15.10;70.70
7254;DHT22;4060;49.186;9.226;2023-04-21T11:07:23;15.10;70.60
7254;DHT22;4060;49.186;9.226;2023-04-21T11:09:58;15.20;70.60
7254;DHT22;4060;49.186;9.226;2023-04-21T11:12:29;15.20;70.50
7254;DHT22;4060;49.186;9.226;2023-04-21T11:15:03;15.20;71.20
7254;DHT22;4060;49.186;9.226;2023-04-21T11:17:34;15.20;70.10
7254;DHT22;4060;49.186;9.226;2023-04-21T11:20:06;15.30;70.00
7254;DHT22;4060;49.186;9.226;2023-04-21T11:22:37;15.30;69.90
7254;DHT22;4060;49.186;9.226;2023-04-21T11:25:17;15.30;69.80
7254;DHT22;4060;49.186;9.226;2023-04-21T11:27:54;15.40;69.80
7254;DHT22;4060;49.186;9.226;2023-04-21T11:30:34;15.40;69.60
7254;DHT22;4060;49.186;9.226;2023-04-21T11:33:03;15.40;69.40
7254;DHT22;4060;49.186;9.226;2023-04-21T11:35:33;15.50;69.40
7254;DHT22;4060;49.186;9.226;2023-04-21T11:38:04;15.50;69.20
7254;DHT22;4060;49.186;9.226;2023-04-21T11:40:46;15.50;68.90
7254;DHT22;4060;49.186;9.226;2023-04-21T11:43:15;15.60;68.90
7254;DHT22;4060;49.186;9.226;2023-04-21T11:45:50;15.60;68.70
7254;DHT22;4060;49.186;9.226;2023-04-21T11:48:19;15.60;68.40
7254;DHT22;4060;49.186;9.226;2023-04-21T11:50:49;15.70;68.40
7254;DHT22;4060;49.186;9.226;2023-04-21T11:53:19;15.70;68.20
7254;DHT22;4060;49.186;9.226;2023-04-21T11:55:49;15.70;68.10
7254;DHT22;4060;49.186;9.226;2023-04-21T11:58:20;15.80;68.00
7254;DHT22;4060;49.186;9.226;2023-04-21T12:00:53;15.80;67.90
7254;DHT22;4060;49.186;9.226;2023-04-21T12:03:23;15.80;67.70
7254;DHT22;4060;49.186;9.226;2023-04-21T12:05:56;15.90;67.70
7254;DHT22;4060;49.186;9.226;2023-04-21T12:08:30;15.90;67.40
7254;DHT22;4060;49.186;9.226;2023-04-21T12:11:01;15.90;67.20
7254;DHT22;4060;49.186;9.226;2023-04-21T12:13:29;16.00;67.30
7254;DHT22;4060;49.186;9.226;2023-04-21T12:16:05;16.00;67.20
7254;DHT22;4060;49.186;9.226;2023-04-21T12:18:35;16.10;67.90
7254;DHT22;4060;49.186;9.226;2023-04-21T12:21:05;16.10;67.00
7254;DHT22;4060;49.186;9.226;2023-04-21T12:23:34;16.10;66.70
7254;DHT22;4060;49.186;9.226;2023-04-21T12:26:05;16.20;66.70
7254;DHT22;4060;49.186;9.226;2023-04-21T12:28:34;16.20;66.50
7254;DHT22;4060;49.186;9.226;2023-04-21T12:31:06;16.30;66.40
7254;DHT22;4060;49.186;9.226;2023-04-21T12:33:35;16.30;66.30
7254;DHT22;4060;49.186;9.226;2023-04-21T12:36:04;16.30;66.20
7254;DHT22;4060;49.186;9.226;2023-04-21T12:38:33;16.30;66.00
7254;DHT22;4060;49.186;9.226;2023-04-21T12:41:02;16.40;66.10
7254;DHT22;4060;49.186;9.226;2023-04-21T12:43:31;16.40;65.90
7254;DHT22;4060;49.186;9.226;2023-04-21T12:46:01;16.50;65.90
7254;DHT22;4060;49.186;9.226;2023-04-21T12:48:32;16.50;65.80
7254;DHT22;4060;49.186;9.226;2023-04-21T12:51:02;16.60;65.80
7254;DHT22;4060;49.186;9.226;2023-04-21T12:53:31;16.60;65.70
7254;DHT22;4060;49.186;9.226;2023-04-21T12:56:03;16.60;65.50
7254;DHT22;4060;49.186;9.226;2023-04-21T12:58:32;16.60;65.50
7254;DHT22;4060;49.186;9.226;2023-04-21T13:01:02;16.70;65.60
7254;DHT22;4060;49.186;9.226;2023-04-21T13:03:33;16.70;65.50
7254;DHT22;4060;49.186;9.226;2023-04-21T13:06:02;16.80;65.50
7254;DHT22;4060;49.186;9.226;2023-04-21T13:08:32;16.80;65.40
7254;DHT22;4060;49.186;9.226;2023-04-21T13:11:02;16.90;65.40
7254;DHT22;4060;49.186;9.226;2023-04-21T13:13:31;16.90;65.30
7254;DHT22;4060;49.186;9.226;2023-04-21T13:16:00;16.90;65.20
7254;DHT22;4060;49.186;9.226;2023-04-21T13:18:30;17.00;65.30
7254;DHT22;4060;49.186;9.226;2023-04-21T13:21:03;17.00;65.10
7254;DHT22;4060;49.186;9.226;2023-04-21T13:23:32;17.00;64.90
7254;DHT22;4060;49.186;9.226;2023-04-21T13:26:02;17.10;65.00
7254;DHT22;4060;49.186;9.226;2023-04-21T13:28:31;17.10;65.00
7254;DHT22;4060;49.186;9.226;2023-04-21T13:31:00;17.10;64.80
7254;DHT22;4060;49.186;9.226;2023-04-21T13:33:29;17.20;64.80
7254;DHT22;4060;49.186;9.226;2023-04-21T13:36:03;17.20;64.80
7254;DHT22;4060;49.186;9.226;2023-04-21T13:38:33;17.30;64.80
7254;DHT22;4060;49.186;9.226;2023-04-21T13:41:03;17.30;64.60
7254;DHT22;4060;49.186;9.226;2023-04-21T13:43:32;17.40;64.60
7254;DHT22;4060;49.186;9.226;2023-04-21T13:46:02;17.40;64.40
7254;DHT22;4060;49.186;9.226;2023-04-21T13:48:31;17.40;64.30
7254;DHT22;4060;49.186;9.226;2023-04-21T13:51:03;17.50;64.40
7254;DHT22;4060;49.186;9.226;2023-04-21T13:53:32;17.50;64.20
7254;DHT22;4060;49.186;9.226;2023-04-21T13:56:02;17.50;64.20
7254;DHT22;4060;49.186;9.226;2023-04-21T13:58:31;17.60;64.30
7254;DHT22;4060;49.186;9.226;2023-04-21T14:01:01;17.60;64.10
7254;DHT22;4060;49.186;9.226;2023-04-21T14:03:31;17.60;64.00
7254;DHT22;4060;49.186;9.226;2023-04-21T14:06:02;17.70;63.90
7254;DHT22;4060;49.186;9.226;2023-04-21T14:08:32;17.70;63.60
7254;DHT22;4060;49.186;9.226;2023-04-21T14:11:01;17.80;63.60
7254;DHT22;4060;49.186;9.226;2023-04-21T14:13:30;17.80;63.70
7254;DHT22;4060;49.186;9.226;2023-04-21T14:16:00;17.90;63.60
7254;DHT22;4060;49.186;9.226;2023-04-21T14:18:29;17.90;63.60
7254;DHT22;4060;49.186;9.226;2023-04-21T14:20:59;18.00;63.70
7254;DHT22;4060;49.186;9.226;2023-04-21T14:23:30;18.00;63.50
7254;DHT22;4060;49.186;9.226;2023-04-21T14:26:00;18.00;63.10
7254;DHT22;4060;49.186;9.226;2023-04-21T14:28:29;18.10;62.90
7254;DHT22;4060;49.186;9.226;2023-04-21T14:30:59;18.10;62.60
7254;DHT22;4060;49.186;9.226;2023-04-21T14:33:28;18.20;62.20
7254;DHT22;4060;49.186;9.226;2023-04-21T14:35:58;18.20;61.20
7254;DHT22;4060;49.186;9.226;2023-04-21T14:38:29;18.30;60.70
7254;DHT22;4060;49.186;9.226;2023-04-21T14:40:58;18.30;60.40
7254;DHT22;4060;49.186;9.226;2023-04-21T14:43:28;18.30;60.20
7254;DHT22;4060;49.186;9.226;2023-04-21T14:45:58;18.40;60.20
7254;DHT22;4060;49.186;9.226;2023-04-21T14:48:28;18.40;60.10
7254;DHT22;4060;49.186;9.226;2023-04-21T14:50:57;18.40;60.10
7254;DHT22;4060;49.186;9.226;2023-04-21T14:53:27;18.40;60.00
7254;DHT22;4060;49.186;9.226;2023-04-21T14:55:58;18.40;59.90
7254;DHT22;4060;49.186;9.226;2023-04-21T14:58:28;18.50;59.90
7254;DHT22;4060;49.186;9.226;2023-04-21T15:00:57;18.50;59.90
7254;DHT22;4060;49.186;9.226;2023-04-21T15:03:27;18.50;59.80
7254;DHT22;4060;49.186;9.226;2023-04-21T15:05:56;18.50;59.70
7254;DHT22;4060;49.186;9.226;2023-04-21T15:08:25;18.50;59.70
7254;DHT22;4060;49.186;9.226;2023-04-21T15:10:55;18.50;59.60
7254;DHT22;4060;49.186;9.226;2023-04-21T15:13:27;18.50;59.60
7254;DHT22;4060;49.186;9.226;2023-04-21T15:15:57;18.60;59.60
7254;DHT22;4060;49.186;9.226;2023-04-21T15:18:26;18.60;59.60
7254;DHT22;4060;49.186;9.226;2023-04-21T15:20:57;18.60;59.50
7254;DHT22;4060;49.186;9.226;2023-04-21T15:23:28;18.60;59.40
7254;DHT22;4060;49.186;9.226;2023-04-21T15:25:59;18.60;59.40
7254;DHT22;4060;49.186;9.226;2023-04-21T15:28:30;18.70;59.40
7254;DHT22;4060;49.186;9.226;2023-04-21T15:31:01;18.80;58.90
7254;DHT22;4060;49.186;9.226;2023-04-21T15:33:31;18.90;58.40
7254;DHT22;4060;49.186;9.226;2023-04-21T15:36:01;19.00;57.90
7254;DHT22;4060;49.186;9.226;2023-04-21T15:38:30;19.10;57.80
7254;DHT22;4060;49.186;9.226;2023-04-21T15:41:00;19.20;57.70
7254;DHT22;4060;49.186;9.226;2023-04-21T15:43:32;19.20;57.60
7254;DHT22;4060;49.186;9.226;2023-04-21T15:46:03;19.40;58.00
7254;DHT22;4060;49.186;9.226;2023-04-21T15:48:39;19.60;58.10
7254;DHT22;4060;49.186;9.226;2023-04-21T15:51:09;19.90;58.00
7254;DHT22;4060;49.186;9.226;2023-04-21T15:53:38;20.20;57.60
7254;DHT22;4060;49.186;9.226;2023-04-21T15:56:14;20.50;57.10
7254;DHT22;4060;49.186;9.226;2023-04-21T15:58:47;20.80;56.60
7254;DHT22;4060;49.186;9.226;2023-04-21T16:01:17;21.00;56.10
7254;DHT22;4060;49.186;9.226;2023-04-21T16:03:48;21.20;55.70
7254;DHT22;4060;49.186;9.226;2023-04-21T16:06:17;21.40;55.30
7254;DHT22;4060;49.186;9.226;2023-04-21T16:08:50;21.50;55.00
7254;DHT22;4060;49.186;9.226;2023-04-21T16:11:20;21.60;54.60
7254;DHT22;4060;49.186;9.226;2023-04-21T16:13:57;21.80;54.40
7254;DHT22;4060;49.186;9.226;2023-04-21T16:16:27;21.80;54.00
7254;DHT22;4060;49.186;9.226;2023-04-21T16:18:57;21.90;53.80
7254;DHT22;4060;49.186;9.226;2023-04-21T16:21:27;22.00;53.60
7254;DHT22;4060;49.186;9.226;2023-04-21T16:23:57;22.00;53.30